createdAt,value
2022-10-09T00:02:01.348Z,16.14
2022-10-09T00:04:46.446Z,16.11
2022-10-09T00:07:31.897Z,16.08
2022-10-09T00:10:17.767Z,16.07
2022-10-09T00:13:03.025Z,16.02
2022-10-09T00:15:48.668Z,15.99
2022-10-09T00:18:34.303Z,16.04
2022-10-09T00:21:21.923Z,16.00
2022-10-09T00:24:07.266Z,15.92
2022-10-09T00:26:52.710Z,16.02
2022-10-09T00:29:38.551Z,15.90
2022-10-09T00:35:33.032Z,15.80
2022-10-09T00:38:18.695Z,15.82
2022-10-09T00:41:04.534Z,15.76
2022-10-09T00:43:54.137Z,15.77
2022-10-09T00:46:46.363Z,15.70
2022-10-09T00:49:32.768Z,15.73
2022-10-09T00:52:19.370Z,15.68
2022-10-09T00:55:05.778Z,15.77
2022-10-09T00:57:51.939Z,15.62
2022-10-09T01:00:37.706Z,15.61
2022-10-09T01:03:24.156Z,15.60
2022-10-09T01:06:22.699Z,15.54
2022-10-09T01:09:11.922Z,15.54
2022-10-09T01:11:57.347Z,15.54
2022-10-09T01:14:59.141Z,15.56
2022-10-09T01:17:50.804Z,15.45
2022-10-09T01:20:57.009Z,15.45
2022-10-09T01:23:45.445Z,15.43
2022-10-09T01:26:31.454Z,15.61
2022-10-09T01:29:19.040Z,15.48
2022-10-09T01:32:06.210Z,15.46
2022-10-09T01:34:52.283Z,15.46
2022-10-09T01:37:38.872Z,15.45
2022-10-09T01:40:25.687Z,15.44
2022-10-09T01:43:11.241Z,15.38
2022-10-09T01:46:15.682Z,15.40
2022-10-09T01:49:19.702Z,15.31
2022-10-09T01:52:14.627Z,15.27
2022-10-09T01:55:08.382Z,15.21
2022-10-09T01:58:14.607Z,15.27
2022-10-09T02:01:02.156Z,15.18
2022-10-09T02:06:59.441Z,15.09
2022-10-09T02:09:45.935Z,15.10
2022-10-09T02:12:33.519Z,15.06
2022-10-09T02:15:20.582Z,15.02
2022-10-09T02:18:10.251Z,14.97
2022-10-09T02:20:56.827Z,15.07
2022-10-09T02:23:44.076Z,14.93
2022-10-09T02:26:29.951Z,14.85
2022-10-09T02:29:15.786Z,14.91
2022-10-09T02:32:01.786Z,14.77
2022-10-09T02:34:47.340Z,14.77
2022-10-09T02:37:32.697Z,14.78
2022-10-09T02:40:18.887Z,14.75
2022-10-09T02:43:05.026Z,14.72
2022-10-09T02:45:50.948Z,14.68
2022-10-09T02:48:36.243Z,14.62
2022-10-09T02:51:22.048Z,14.64
2022-10-09T02:54:07.611Z,14.63
2022-10-09T02:56:52.693Z,14.60
2022-10-09T03:03:12.023Z,14.39
2022-10-09T03:06:05.131Z,14.25
2022-10-09T03:08:51.453Z,14.19
2022-10-09T03:11:36.966Z,14.08
2022-10-09T03:14:22.086Z,14.02
2022-10-09T03:17:07.703Z,13.98
2022-10-09T03:19:53.769Z,13.85
2022-10-09T03:22:39.461Z,13.82
2022-10-09T03:25:25.700Z,13.76
2022-10-09T03:28:47.497Z,13.70
2022-10-09T03:31:51.042Z,13.56
2022-10-09T03:34:37.018Z,13.52
2022-10-09T03:37:22.494Z,13.41
2022-10-09T03:40:07.516Z,13.34
2022-10-09T03:42:52.950Z,13.27
2022-10-09T03:45:42.310Z,13.22
2022-10-09T03:48:27.743Z,13.19
2022-10-09T03:51:14.448Z,13.15
2022-10-09T03:53:59.491Z,13.12
2022-10-09T03:56:45.273Z,13.09
2022-10-09T03:59:30.538Z,13.00
2022-10-09T04:02:16.401Z,12.97
2022-10-09T04:05:02.073Z,12.86
2022-10-09T04:07:48.591Z,13.00
2022-10-09T04:10:34.010Z,12.82
2022-10-09T04:13:19.162Z,12.79
2022-10-09T04:16:04.923Z,12.66
2022-10-09T04:18:50.298Z,12.60
2022-10-09T04:21:36.092Z,12.57
2022-10-09T04:24:21.785Z,12.57
2022-10-09T04:27:07.609Z,12.62
2022-10-09T04:29:53.193Z,12.47
2022-10-09T04:32:39.334Z,12.49
2022-10-09T04:35:25.058Z,12.43
2022-10-09T04:38:11.347Z,12.34
2022-10-09T04:41:00.471Z,12.39
2022-10-09T04:43:45.627Z,12.34
2022-10-09T04:46:31.517Z,12.34
2022-10-09T04:49:17.392Z,12.34
2022-10-09T04:52:03.462Z,12.31
2022-10-09T04:54:48.824Z,12.25
2022-10-09T04:57:34.519Z,12.29
2022-10-09T05:00:20.155Z,12.27
2022-10-09T05:03:05.777Z,12.27
2022-10-09T05:05:52.048Z,12.24
2022-10-09T05:08:38.311Z,12.22
2022-10-09T05:11:24.825Z,12.25
2022-10-09T05:14:10.629Z,12.30
2022-10-09T05:17:13.164Z,12.22
2022-10-09T05:20:00.848Z,12.22
2022-10-09T05:22:48.961Z,12.23
2022-10-09T05:27:36.373Z,12.27
2022-10-09T05:30:21.566Z,12.31
2022-10-09T05:33:07.280Z,12.30
2022-10-09T05:35:53.999Z,12.33
2022-10-09T05:38:39.363Z,12.39
2022-10-09T05:41:25.676Z,12.48
2022-10-09T05:44:11.823Z,12.55
2022-10-09T05:46:57.542Z,12.67
2022-10-09T05:49:48.698Z,12.78
2022-10-09T05:52:35.812Z,13.12
2022-10-09T05:55:21.329Z,13.36
2022-10-09T05:58:07.681Z,13.80
2022-10-09T06:00:53.475Z,14.32
2022-10-09T06:03:39.629Z,14.55
2022-10-09T06:06:26.851Z,14.88
2022-10-09T06:09:12.804Z,15.24
2022-10-09T06:11:58.230Z,15.35
2022-10-09T06:14:44.082Z,15.51
2022-10-09T06:17:30.405Z,15.77
2022-10-09T06:20:15.884Z,15.97
2022-10-09T06:23:02.298Z,16.32
2022-10-09T06:25:55.551Z,16.79
2022-10-09T06:28:41.343Z,17.20
2022-10-09T06:31:28.575Z,17.34
2022-10-09T06:34:14.197Z,17.59
2022-10-09T06:36:59.584Z,17.88
2022-10-09T06:40:10.351Z,18.30
2022-10-09T06:42:56.057Z,18.45
2022-10-09T06:45:42.282Z,18.52
2022-10-09T06:48:34.679Z,18.59
2022-10-09T06:51:21.951Z,18.53
2022-10-09T06:54:11.234Z,18.81
2022-10-09T06:56:56.938Z,18.99
2022-10-09T06:59:42.093Z,18.97
2022-10-09T07:02:27.867Z,19.02
2022-10-09T07:05:13.168Z,18.46
2022-10-09T07:07:58.969Z,18.29
2022-10-09T07:10:44.435Z,18.20
2022-10-09T07:13:30.403Z,18.29
2022-10-09T07:16:41.953Z,18.53
2022-10-09T07:19:27.422Z,18.80
2022-10-09T07:22:12.797Z,18.85
2022-10-09T07:24:57.848Z,18.88
2022-10-09T07:27:43.362Z,18.91
2022-10-09T07:30:28.817Z,18.93
2022-10-09T07:33:14.307Z,18.77
2022-10-09T07:36:00.961Z,18.71
2022-10-09T07:38:53.362Z,18.62
2022-10-09T07:42:03.485Z,18.62
2022-10-09T07:44:48.996Z,18.63
2022-10-09T07:47:34.473Z,18.60
2022-10-09T07:50:44.736Z,18.60
2022-10-09T07:53:35.686Z,18.46
2022-10-09T07:56:25.634Z,18.56
2022-10-09T07:59:15.248Z,18.58
2022-10-09T08:02:00.442Z,18.46
2022-10-09T08:04:45.907Z,18.39
2022-10-09T08:07:13.144Z,18.51
2022-10-09T08:09:40.543Z,18.64
2022-10-09T08:12:07.527Z,18.80
2022-10-09T08:14:34.176Z,18.82
2022-10-09T08:17:01.335Z,19.01
2022-10-09T08:19:28.906Z,19.00
2022-10-09T08:21:56.238Z,19.07
2022-10-09T08:24:25.286Z,19.30
2022-10-09T08:27:20.174Z,19.47
2022-10-09T08:29:46.996Z,19.80
2022-10-09T08:32:13.647Z,19.93
2022-10-09T08:35:08.193Z,19.93
2022-10-09T08:37:34.904Z,19.96
2022-10-09T08:40:02.573Z,20.02
2022-10-09T08:42:34.847Z,19.82
2022-10-09T08:45:02.860Z,19.55
2022-10-09T08:47:44.969Z,19.50
2022-10-09T08:50:18.640Z,19.01
2022-10-09T08:52:49.714Z,18.93
2022-10-09T08:55:19.971Z,18.74
2022-10-09T08:57:51.183Z,18.74
2022-10-09T09:00:22.658Z,18.71
2022-10-09T09:03:06.700Z,19.01
2022-10-09T09:05:40.322Z,19.05
2022-10-09T09:08:23.320Z,18.76
2022-10-09T09:11:00.472Z,18.72
2022-10-09T09:13:27.466Z,18.38
2022-10-09T09:16:01.486Z,18.44
2022-10-09T09:18:47.852Z,18.40
2022-10-09T09:21:27.404Z,18.40
2022-10-09T09:23:54.397Z,18.66
2022-10-09T09:26:22.049Z,18.47
2022-10-09T09:28:50.578Z,18.27
2022-10-09T09:31:18.771Z,18.02
2022-10-09T09:33:50.195Z,18.05
2022-10-09T09:36:17.481Z,18.09
2022-10-09T09:39:22.614Z,17.65
2022-10-09T09:41:31.457Z,17.75
2022-10-09T09:43:58.870Z,17.71
2022-10-09T09:46:27.531Z,17.83
2022-10-09T09:48:54.493Z,17.75
2022-10-09T09:51:32.369Z,17.81
2022-10-09T09:54:02.396Z,17.51
2022-10-09T09:56:53.195Z,17.42
2022-10-09T10:03:20.510Z,17.79
2022-10-09T10:05:49.928Z,18.03
2022-10-09T10:08:25.518Z,17.82
2022-10-09T10:10:55.678Z,17.73
2022-10-09T10:16:44.905Z,17.88
2022-10-09T10:19:24.281Z,17.93
2022-10-09T10:21:57.137Z,18.00
2022-10-09T10:24:29.895Z,18.18
2022-10-09T10:27:02.883Z,18.09
2022-10-09T10:29:34.026Z,18.04
2022-10-09T10:32:04.464Z,18.01
2022-10-09T10:34:44.782Z,18.11
2022-10-09T10:37:14.519Z,18.24
2022-10-09T10:39:45.728Z,18.62
2022-10-09T10:42:17.538Z,18.13
2022-10-09T10:44:50.438Z,18.18
2022-10-09T10:50:14.242Z,18.16
2022-10-09T10:52:41.245Z,18.18
2022-10-09T10:55:31.132Z,17.95
2022-10-09T10:57:57.788Z,17.87
2022-10-09T11:00:26.550Z,17.93
2022-10-09T11:03:12.255Z,17.92
2022-10-09T11:05:41.534Z,17.83
2022-10-09T11:08:14.222Z,18.13
2022-10-09T11:10:56.770Z,17.79
2022-10-09T11:13:35.028Z,17.60
2022-10-09T11:16:09.913Z,17.66
2022-10-09T11:18:55.350Z,17.76
2022-10-09T11:21:46.543Z,17.83
2022-10-09T11:24:34.186Z,17.90
2022-10-09T11:27:15.270Z,18.01
2022-10-09T11:30:07.503Z,18.05
2022-10-09T11:32:38.273Z,18.00
2022-10-09T11:35:14.377Z,18.01
2022-10-09T11:37:43.453Z,18.04
2022-10-09T11:40:23.081Z,18.03
2022-10-09T11:42:56.957Z,18.03
2022-10-09T11:45:36.718Z,18.09
2022-10-09T11:48:35.909Z,18.10
2022-10-09T11:51:08.359Z,17.95
2022-10-09T11:53:37.146Z,17.92
2022-10-09T11:58:59.750Z,17.96
2022-10-09T12:01:31.454Z,17.97
2022-10-09T12:04:01.567Z,17.91
2022-10-09T12:06:54.495Z,17.96
2022-10-09T12:12:55.921Z,17.83
2022-10-09T12:15:27.590Z,17.58
2022-10-09T12:17:54.449Z,17.61
2022-10-09T12:20:23.117Z,17.70
2022-10-09T12:23:26.733Z,17.78
2022-10-09T12:25:56.614Z,17.85
2022-10-09T12:28:37.879Z,17.93
2022-10-09T12:31:11.829Z,17.97
2022-10-09T12:33:49.444Z,18.14
2022-10-09T12:36:26.238Z,18.13
2022-10-09T12:38:56.131Z,17.95
2022-10-09T12:41:33.856Z,17.96
2022-10-09T12:44:01.218Z,17.94
2022-10-09T12:46:33.846Z,17.93
2022-10-09T12:49:02.096Z,18.09
2022-10-09T12:51:30.953Z,18.23
2022-10-09T12:54:01.968Z,18.06
2022-10-09T12:56:32.517Z,17.89
2022-10-09T12:59:06.707Z,17.92
2022-10-09T13:01:44.432Z,17.96
2022-10-09T13:04:31.890Z,18.14
2022-10-09T13:07:01.520Z,18.07
2022-10-09T13:09:35.650Z,17.94
2022-10-09T13:12:09.137Z,17.91
2022-10-09T13:14:56.585Z,17.93
2022-10-09T13:17:40.711Z,17.87
2022-10-09T13:20:17.799Z,17.91
2022-10-09T13:23:07.351Z,17.95
2022-10-09T13:25:37.415Z,18.00
2022-10-09T13:28:10.916Z,17.97
2022-10-09T13:30:39.185Z,18.05
2022-10-09T13:33:12.318Z,18.06
2022-10-09T13:35:39.678Z,18.16
2022-10-09T13:38:06.268Z,18.07
2022-10-09T13:40:46.538Z,18.13
2022-10-09T13:43:45.550Z,18.35
2022-10-09T13:46:20.416Z,18.26
2022-10-09T13:48:50.783Z,18.44
2022-10-09T13:51:18.017Z,18.35
2022-10-09T13:53:44.599Z,18.36
2022-10-09T13:56:12.532Z,18.48
2022-10-09T13:58:45.834Z,18.35
2022-10-09T14:01:13.850Z,18.30
2022-10-09T14:09:24.746Z,18.43
2022-10-09T14:11:51.528Z,18.50
2022-10-09T14:14:18.501Z,18.44
2022-10-09T14:16:45.140Z,18.55
2022-10-09T14:19:12.162Z,18.42
2022-10-09T14:21:42.001Z,18.49
2022-10-09T14:24:09.481Z,18.40
2022-10-09T14:26:36.583Z,18.40
2022-10-09T14:29:03.722Z,18.44
2022-10-09T14:31:31.021Z,18.52
2022-10-09T14:33:59.367Z,18.56
2022-10-09T14:36:26.485Z,18.61
2022-10-09T14:38:53.323Z,18.54
2022-10-09T14:41:20.961Z,18.45
2022-10-09T14:43:48.546Z,18.28
2022-10-09T14:46:17.323Z,18.35
2022-10-09T14:48:44.852Z,18.36
2022-10-09T14:51:13.635Z,18.20
2022-10-09T14:53:40.415Z,18.08
2022-10-09T14:56:10.432Z,18.05
2022-10-09T14:58:37.549Z,18.07
2022-10-09T15:01:04.627Z,18.06
2022-10-09T15:03:32.391Z,17.90
2022-10-09T15:06:00.538Z,17.82
2022-10-09T15:08:29.685Z,17.85
2022-10-09T15:10:56.557Z,17.72
2022-10-09T15:13:23.785Z,17.68
2022-10-09T15:15:50.686Z,17.62
2022-10-09T15:18:18.966Z,17.46
2022-10-09T15:20:48.490Z,17.38
2022-10-09T15:23:19.888Z,17.41
2022-10-09T15:25:50.257Z,17.30
2022-10-09T15:28:21.446Z,17.21
2022-10-09T15:30:59.461Z,17.21
2022-10-09T15:33:26.653Z,17.10
2022-10-09T15:35:54.083Z,17.05
2022-10-09T15:38:22.617Z,16.93
2022-10-09T15:40:50.695Z,16.91
2022-10-09T15:43:18.551Z,16.81
2022-10-09T15:45:54.711Z,16.76
2022-10-09T15:48:46.501Z,16.63
2022-10-09T15:51:14.318Z,16.51
2022-10-09T15:53:42.454Z,16.43
2022-10-09T15:56:10.352Z,16.34
2022-10-09T15:58:36.949Z,16.29
2022-10-09T16:01:06.122Z,16.23
2022-10-09T16:03:36.471Z,16.15
2022-10-09T16:06:05.656Z,16.08
2022-10-09T16:08:32.801Z,16.06
2022-10-09T16:11:00.083Z,16.00
2022-10-09T16:13:28.167Z,15.95
2022-10-09T16:15:54.812Z,15.87
2022-10-09T16:18:23.465Z,15.78
2022-10-09T16:20:50.853Z,15.72
2022-10-09T16:23:18.303Z,15.66
2022-10-09T16:25:45.181Z,15.58
2022-10-09T16:28:13.083Z,15.53
2022-10-09T16:30:40.883Z,15.48
2022-10-09T16:33:12.285Z,15.41
2022-10-09T16:35:40.412Z,15.37
2022-10-09T16:38:07.812Z,15.34
2022-10-09T16:41:00.809Z,15.30
2022-10-09T16:43:21.824Z,15.26
2022-10-09T16:45:49.330Z,15.21
2022-10-09T16:48:16.216Z,15.12
2022-10-09T16:50:43.429Z,15.15
2022-10-09T16:53:11.689Z,15.14
2022-10-09T16:55:40.789Z,15.12
2022-10-09T16:58:08.020Z,15.09
2022-10-09T17:01:00.441Z,15.07
2022-10-09T17:03:28.001Z,15.02
2022-10-09T17:05:54.984Z,14.97
2022-10-09T17:08:22.761Z,14.90
2022-10-09T17:10:50.051Z,14.88
2022-10-09T17:13:16.674Z,14.83
2022-10-09T17:15:44.594Z,14.79
2022-10-09T17:18:11.475Z,14.75
2022-10-09T17:20:38.928Z,14.70
2022-10-09T17:25:57.427Z,14.60
2022-10-09T17:28:24.807Z,14.56
2022-10-09T17:31:17.766Z,14.49
2022-10-09T17:33:50.613Z,14.43
2022-10-09T17:39:19.831Z,14.32
2022-10-09T17:41:50.910Z,14.29
2022-10-09T17:44:44.907Z,14.22
2022-10-09T17:47:12.926Z,14.16
2022-10-09T17:49:39.744Z,14.10
2022-10-09T17:52:12.628Z,14.06
2022-10-09T17:54:43.183Z,14.01
2022-10-09T17:57:13.386Z,13.95
2022-10-09T17:59:40.525Z,13.86
2022-10-09T18:02:21.803Z,13.83
2022-10-09T18:04:51.748Z,13.78
2022-10-09T18:07:21.936Z,13.74
2022-10-09T18:09:50.515Z,13.70
2022-10-09T18:12:42.521Z,13.64
2022-10-09T18:15:10.852Z,13.55
2022-10-09T18:17:44.064Z,13.51
2022-10-09T18:20:11.254Z,13.48
2022-10-09T18:23:22.389Z,13.44
2022-10-09T18:25:56.190Z,13.36
2022-10-09T18:28:25.534Z,13.31
2022-10-09T18:30:58.059Z,13.25
2022-10-09T18:33:27.448Z,13.19
2022-10-09T18:35:55.081Z,13.17
2022-10-09T18:38:24.597Z,13.11
2022-10-09T18:40:54.072Z,13.07
2022-10-09T18:43:20.928Z,13.04
2022-10-09T18:46:12.510Z,13.03
2022-10-09T18:48:42.311Z,13.01
2022-10-09T18:51:13.518Z,12.94
2022-10-09T18:53:42.348Z,12.90
2022-10-09T18:56:13.670Z,12.87
2022-10-09T18:58:56.372Z,12.82
2022-10-09T19:01:23.799Z,12.79
2022-10-09T19:07:10.975Z,12.77
2022-10-09T19:09:46.522Z,12.76
2022-10-09T19:12:13.160Z,12.74
2022-10-09T19:14:40.541Z,12.68
2022-10-09T19:17:07.996Z,12.63
2022-10-09T19:22:25.861Z,12.52
2022-10-09T19:25:05.289Z,12.47
2022-10-09T19:29:43.605Z,12.45
2022-10-09T19:32:24.124Z,12.41
2022-10-09T19:35:07.963Z,12.36
2022-10-09T19:37:38.568Z,12.35
2022-10-09T19:40:09.074Z,12.34
2022-10-09T19:42:39.182Z,12.32
2022-10-09T19:45:06.535Z,12.30
2022-10-09T19:47:35.713Z,12.22
2022-10-09T19:50:36.130Z,12.19
2022-10-09T19:53:12.823Z,12.18
2022-10-09T19:55:42.794Z,12.16
2022-10-09T19:58:14.090Z,12.12
2022-10-09T20:00:41.876Z,12.10
2022-10-09T20:03:13.113Z,12.08
2022-10-09T20:08:24.258Z,12.06
2022-10-09T20:10:51.640Z,12.04
2022-10-09T20:13:19.028Z,12.00
2022-10-09T20:15:45.719Z,11.97
2022-10-09T20:18:18.540Z,11.99
2022-10-09T20:20:48.416Z,11.99
2022-10-09T20:23:15.449Z,11.97
2022-10-09T20:25:49.419Z,11.96
2022-10-09T20:28:22.612Z,11.92
2022-10-09T20:31:20.526Z,11.87
2022-10-09T20:34:08.539Z,11.78
2022-10-09T20:36:42.028Z,11.74
2022-10-09T20:39:24.387Z,11.71
2022-10-09T20:42:01.784Z,11.67
2022-10-09T20:44:37.757Z,11.56
2022-10-09T20:47:04.763Z,11.55
2022-10-09T20:49:31.611Z,11.53
2022-10-09T20:51:59.170Z,11.51
2022-10-09T20:54:26.033Z,11.47
2022-10-09T20:56:52.734Z,11.43
2022-10-09T20:59:19.488Z,11.43
2022-10-09T21:01:46.522Z,11.40
2022-10-09T21:04:14.910Z,11.36
2022-10-09T21:06:41.942Z,11.32
2022-10-09T21:09:09.564Z,11.26
2022-10-09T21:11:36.237Z,11.26
2022-10-09T21:15:20.575Z,11.28
2022-10-09T21:17:48.489Z,11.28
2022-10-09T21:23:06.879Z,11.33
2022-10-09T21:25:58.088Z,11.31
2022-10-09T21:28:26.895Z,11.33
2022-10-09T21:30:53.750Z,11.36
2022-10-09T21:33:20.632Z,11.39
2022-10-09T21:35:48.769Z,11.37
2022-10-09T21:38:16.954Z,11.34
2022-10-09T21:40:44.123Z,11.35
2022-10-09T21:43:10.973Z,11.34
2022-10-09T21:45:39.356Z,11.32
2022-10-09T21:48:06.716Z,11.27
2022-10-09T21:50:36.425Z,11.26
2022-10-09T21:53:04.213Z,11.26
2022-10-09T21:55:31.091Z,11.26
2022-10-09T21:57:57.681Z,11.24
2022-10-09T22:00:24.263Z,11.22
2022-10-09T22:02:51.704Z,11.21
2022-10-09T22:05:19.024Z,11.22
2022-10-09T22:07:46.075Z,11.21
2022-10-09T22:10:13.329Z,11.21
2022-10-09T22:12:40.057Z,11.19
2022-10-09T22:15:07.008Z,11.16
2022-10-09T22:17:58.719Z,11.09
2022-10-09T22:20:25.539Z,11.05
2022-10-09T22:22:53.082Z,11.02
2022-10-09T22:25:20.082Z,10.97
2022-10-09T22:27:46.603Z,10.97
2022-10-09T22:30:13.660Z,10.97
2022-10-09T22:32:40.652Z,10.96
2022-10-09T22:35:07.652Z,10.92
2022-10-09T22:37:34.586Z,10.95
2022-10-09T22:40:01.454Z,10.95
2022-10-09T22:42:29.715Z,10.88
2022-10-09T22:44:56.605Z,10.87
2022-10-09T22:47:23.264Z,10.91
2022-10-09T22:49:50.907Z,11.00
2022-10-09T22:52:17.616Z,10.99
2022-10-09T22:54:44.685Z,10.98
2022-10-09T22:57:12.079Z,10.95
2022-10-09T22:59:38.806Z,10.93
2022-10-09T23:02:05.612Z,10.94
2022-10-09T23:04:57.462Z,10.93
2022-10-09T23:07:24.149Z,10.89
2022-10-09T23:09:51.023Z,10.87
2022-10-09T23:12:17.691Z,10.89
2022-10-09T23:14:45.094Z,10.90
2022-10-09T23:17:12.174Z,10.89
2022-10-09T23:19:38.855Z,10.89
2022-10-09T23:22:06.261Z,10.91
2022-10-09T23:24:32.794Z,10.93
2022-10-09T23:27:00.420Z,10.95
2022-10-09T23:29:27.538Z,11.00
2022-10-09T23:31:54.340Z,11.04
2022-10-09T23:34:20.896Z,11.05
2022-10-09T23:36:48.709Z,11.07
2022-10-09T23:39:15.430Z,11.06
2022-10-09T23:41:42.423Z,11.07
2022-10-09T23:44:09.780Z,11.12
2022-10-09T23:46:38.121Z,11.13
2022-10-09T23:49:05.935Z,11.15
2022-10-09T23:51:33.139Z,11.13
2022-10-09T23:53:59.787Z,11.09
2022-10-09T23:56:31.681Z,11.16
2022-10-09T23:58:59.159Z,11.15
